Time;durP1;ratioP1;P1;durP2;ratioP2;P2;SDS_P1;SDS_P2;PMS_P1;PMS_P2;Temp;Humidity;BMP_temperature;BMP_pressure;BME280_temperature;BME280_humidity;BME280_pressure;Samples;Min_cycle;Max_cycle;Signal;HPM_P1;HPM_P2
2022/01/09 00:06:56;;;;;;;100.70;51.30;;;;;;;-3.65;77.94;97586.76;432135;1270;95714;-41
2022/01/09 00:17:03;;;;;;;123.00;51.80;;;;;;;-3.46;77.74;97570.14;432161;1270;108844;-43
2022/01/09 00:27:10;;;;;;;151.90;62.70;;;;;;;-3.41;78.02;97559.32;432215;1270;95694;-41
2022/01/09 00:37:16;;;;;;;151.10;64.20;;;;;;;-3.52;77.80;97548.89;433379;1268;95675;-41
2022/01/09 00:47:23;;;;;;;180.10;69.40;;;;;;;-3.68;78.04;97540.84;433168;1268;109589;-42
2022/01/09 00:57:29;;;;;;;93.80;46.10;;;;;;;-3.75;77.82;97530.73;433161;1268;107783;-41
2022/01/09 01:07:37;;;;;;;107.60;48.40;;;;;;;-3.67;78.03;97522.73;433214;1268;96626;-40
2022/01/09 01:17:49;;;;;;;106.70;50.10;;;;;;;-3.62;77.94;97518.73;433473;1268;108932;-41
2022/01/09 01:27:57;;;;;;;138.30;60.80;;;;;;;-3.73;78.22;97503.86;433460;1268;108791;-41
2022/01/09 01:38:04;;;;;;;133.50;58.20;;;;;;;-3.85;78.29;97492.30;433347;1270;108721;-40
2022/01/09 01:48:13;;;;;;;141.70;60.80;;;;;;;-3.90;78.67;97478.73;433621;1269;95642;-41
2022/01/09 01:58:21;;;;;;;90.80;46.20;;;;;;;-3.93;78.46;97473.08;433655;1267;95419;-43
2022/01/09 02:08:28;;;;;;;105.90;46.10;;;;;;;-3.93;78.29;97454.11;433886;1267;108989;-42
2022/01/09 02:18:35;;;;;;;92.30;45.70;;;;;;;-3.93;78.38;97439.95;434224;1257;95464;-41
2022/01/09 02:28:43;;;;;;;121.40;51.70;;;;;;;-3.95;78.50;97431.73;432951;1269;109757;-41
2022/01/09 02:38:50;;;;;;;123.40;51.60;;;;;;;-4.06;78.48;97427.27;432955;1271;109365;-40
2022/01/09 02:48:59;;;;;;;126.70;56.00;;;;;;;-4.19;78.79;97424.10;433027;1271;108751;-42
2022/01/09 02:59:04;;;;;;;119.50;52.00;;;;;;;-4.35;78.80;97408.17;432603;1270;95625;-42
2022/01/09 03:09:11;;;;;;;122.80;52.30;;;;;;;-4.48;78.86;97390.41;432804;1269;109445;-41
2022/01/09 03:19:18;;;;;;;85.30;45.50;;;;;;;-4.48;78.75;97385.13;432584;1271;109056;-43
2022/01/09 03:29:25;;;;;;;83.00;41.50;;;;;;;-4.41;78.81;97361.94;428394;1269;5547503;-41
2022/01/09 03:39:33;;;;;;;85.30;39.30;;;;;;;-4.26;78.93;97344.63;432481;1271;109604;-41
2022/01/09 03:49:40;;;;;;;179.20;68.70;;;;;;;-4.16;78.98;97335.80;432450;1270;108790;-41
2022/01/09 03:59:47;;;;;;;160.50;60.50;;;;;;;-4.32;79.00;97332.67;432654;1269;96118;-41
2022/01/09 04:09:54;;;;;;;150.60;61.10;;;;;;;-4.49;79.02;97330.83;432545;1269;95672;-41
2022/01/09 04:20:01;;;;;;;100.40;49.50;;;;;;;-4.52;79.19;97333.36;432790;1270;110301;-41
2022/01/09 04:30:06;;;;;;;92.20;45.70;;;;;;;-4.35;79.28;97332.21;432621;1271;108442;-41
2022/01/09 04:40:14;;;;;;;94.60;45.80;;;;;;;-4.06;79.46;97323.52;432737;1270;96185;-41
2022/01/09 04:50:25;;;;;;;126.70;54.40;;;;;;;-3.78;79.95;97321.23;432970;1269;109656;-40
2022/01/09 05:00:32;;;;;;;123.10;53.00;;;;;;;-3.53;80.14;97320.96;432774;1270;108918;-41
2022/01/09 05:10:40;;;;;;;91.40;46.20;;;;;;;-3.36;80.01;97318.10;432729;1269;109339;-41
2022/01/09 05:20:47;;;;;;;82.90;42.10;;;;;;;-3.21;80.19;97316.45;432601;1270;96124;-41
2022/01/09 05:30:54;;;;;;;95.90;43.70;;;;;;;-3.02;80.28;97320.04;432756;1270;109633;-41
2022/01/09 05:41:01;;;;;;;107.90;45.30;;;;;;;-3.04;80.20;97316.08;432859;1269;108810;-41
2022/01/09 05:51:08;;;;;;;95.60;41.00;;;;;;;-3.19;80.19;97309.84;432770;1270;108196;-41
2022/01/09 06:01:15;;;;;;;74.10;35.60;;;;;;;-3.19;80.63;97309.91;432811;1269;96408;-41
2022/01/09 06:11:23;;;;;;;78.10;36.30;;;;;;;-3.19;80.50;97315.73;432697;1269;109781;-42
2022/01/09 06:21:30;;;;;;;67.60;33.00;;;;;;;-3.23;80.57;97329.79;432850;1270;108789;-41
2022/01/09 06:31:37;;;;;;;96.80;42.90;;;;;;;-3.38;80.54;97339.07;432804;1269;95430;-41
2022/01/09 06:41:44;;;;;;;97.60;42.70;;;;;;;-3.58;80.78;97345.48;432883;1269;95980;-41
2022/01/09 06:51:51;;;;;;;96.50;40.50;;;;;;;-3.74;80.54;97340.55;432862;1270;109768;-42
2022/01/09 07:01:58;;;;;;;78.70;38.20;;;;;;;-3.75;80.57;97345.73;432719;1270;108699;-40
2022/01/09 07:12:07;;;;;;;80.00;39.30;;;;;;;-3.70;80.55;97341.98;432767;1270;96556;-41
2022/01/09 07:22:14;;;;;;;69.40;38.40;;;;;;;-3.64;80.69;97340.88;432962;1270;109775;-43
2022/01/09 07:32:22;;;;;;;90.60;42.90;;;;;;;-3.52;80.75;97348.81;432894;1270;108813;-41
2022/01/09 07:42:30;;;;;;;90.90;41.90;;;;;;;-3.32;80.99;97341.52;432896;1270;108711;-40
2022/01/09 07:52:39;;;;;;;88.10;40.00;;;;;;;-3.10;81.12;97329.55;433045;1270;95271;-40
2022/01/09 08:02:47;;;;;;;64.60;33.10;;;;;;;-2.86;80.95;97325.09;432923;1270;96161;-42
2022/01/09 08:12:54;;;;;;;76.80;32.20;;;;;;;-1.99;80.93;97317.54;433211;1270;108921;-44
2022/01/09 08:33:14;;;;;;;96.10;46.80;;;;;;;-0.19;79.94;97308.05;433205;1269;97923;-41
2022/01/09 08:43:21;;;;;;;102.90;45.60;;;;;;;0.68;78.81;97296.34;433304;1269;111290;-41
2022/01/09 08:53:29;;;;;;;96.40;44.20;;;;;;;0.92;77.55;97295.41;433139;1270;107770;-40
2022/01/09 09:13:43;;;;;;;84.20;41.00;;;;;;;0.27;76.37;97295.58;433199;1269;96674;-41
2022/01/09 09:23:51;;;;;;;98.90;43.20;;;;;;;-0.07;75.81;97298.86;433180;1270;111378;-42
2022/01/09 09:33:58;;;;;;;96.80;42.10;;;;;;;-0.02;76.23;97294.08;433104;1269;109466;-41
2022/01/09 09:44:07;;;;;;;63.60;30.00;;;;;;;0.22;75.66;97276.30;433309;1269;108776;-41
2022/01/09 10:04:22;;;;;;;78.50;33.60;;;;;;;0.59;74.91;97256.51;433180;1269;108831;-41
2022/01/09 10:14:33;;;;;;;73.20;33.90;;;;;;;0.74;74.70;97255.80;433360;1268;107761;-41
2022/01/09 10:24:40;;;;;;;56.80;26.60;;;;;;;0.92;74.07;97252.77;433267;1270;96656;-40
2022/01/09 10:35:16;;;;;;;58.40;26.00;;;;;;;1.13;73.72;97247.02;433258;1270;98012;-42
2022/01/09 10:45:24;;;;;;;51.40;24.00;;;;;;;1.30;73.28;97238.86;433387;1268;107791;-41
2022/01/09 11:05:39;;;;;;;58.90;26.10;;;;;;;1.58;73.05;97229.46;433191;1270;97005;-41
2022/01/09 11:25:58;;;;;;;49.10;20.70;;;;;;;1.87;71.06;97223.67;433452;1270;106954;-41
2022/01/09 11:46:10;;;;;;;36.50;15.70;;;;;;;2.12;69.20;97203.25;433398;1270;96986;-40
2022/01/09 11:56:37;;;;;;;31.70;14.40;;;;;;;2.24;69.04;97202.52;433297;1270;111004;-40
2022/01/09 12:16:53;;;;;;;35.60;17.60;;;;;;;2.37;68.43;97203.55;433183;1269;108457;-42
2022/01/09 12:27:20;;;;;;;46.50;17.50;;;;;;;2.38;67.65;97202.91;433363;1270;96606;-41
2022/01/09 12:37:28;;;;;;;35.40;14.10;;;;;;;2.37;66.03;97204.96;433293;1270;111084;-41
2022/01/09 12:47:39;;;;;;;30.10;13.70;;;;;;;2.36;66.10;97210.13;433209;1269;109149;-42
2022/01/09 12:57:51;;;;;;;29.00;12.20;;;;;;;2.33;64.48;97211.51;433387;1270;108823;-41
2022/01/09 13:18:03;;;;;;;21.20;10.90;;;;;;;2.21;64.35;97228.63;433291;1269;97897;-41
2022/01/09 13:28:16;;;;;;;25.50;12.10;;;;;;;2.15;63.53;97226.58;433144;1269;108640;-42
2022/01/09 13:38:24;;;;;;;34.40;14.30;;;;;;;2.01;63.15;97232.83;433318;1270;97960;-42
2022/01/09 13:48:44;;;;;;;34.80;15.80;;;;;;;1.86;63.83;97239.28;432351;1270;110693;-41
2022/01/09 14:09:01;;;;;;;45.10;19.30;;;;;;;1.49;64.81;97258.11;432313;1270;108815;-41
2022/01/09 14:19:13;;;;;;;49.70;20.80;;;;;;;1.38;65.05;97265.74;432462;1270;97654;-40
2022/01/09 14:29:37;;;;;;;55.20;26.30;;;;;;;1.17;65.58;97273.05;432327;1270;111129;-40
2022/01/09 14:39:45;;;;;;;123.90;51.10;;;;;;;0.88;66.18;97281.45;432507;1268;105694;-41
2022/01/09 14:49:52;;;;;;;128.30;54.80;;;;;;;0.56;66.42;97298.00;432345;1270;107940;-40
2022/01/09 14:59:59;;;;;;;110.50;48.90;;;;;;;0.20;66.77;97306.02;432344;1270;97484;-39
2022/01/09 15:20:12;;;;;;;89.70;37.70;;;;;;;-0.40;67.54;97318.98;432519;1270;108753;-40
2022/01/09 15:30:20;;;;;;;123.20;53.30;;;;;;;-0.61;67.79;97328.55;428303;1270;5622126;-41
2022/01/09 15:40:26;;;;;;;111.30;45.90;;;;;;;-0.90;68.00;97333.20;432433;1270;97903;-41
2022/01/09 15:50:34;;;;;;;101.80;45.10;;;;;;;-1.14;68.40;97345.98;432349;1270;111068;-41
2022/01/09 16:00:41;;;;;;;95.40;45.00;;;;;;;-1.11;68.78;97358.10;432264;1270;109567;-39
2022/01/09 16:10:48;;;;;;;107.30;46.30;;;;;;;-1.01;68.87;97365.12;432496;1270;97817;-41
2022/01/09 16:20:57;;;;;;;160.70;64.40;;;;;;;-0.93;68.94;97376.02;432648;1270;110997;-40
2022/01/09 16:31:05;;;;;;;159.00;65.20;;;;;;;-0.98;69.42;97380.70;432460;1271;108948;-41
2022/01/09 16:51:23;;;;;;;122.90;54.20;;;;;;;-1.14;69.49;97400.46;432853;1270;97906;-39
2022/01/09 17:01:31;;;;;;;111.50;44.10;;;;;;;-1.21;69.80;97406.84;432893;1270;111904;-40
2022/01/09 17:11:39;;;;;;;124.90;46.40;;;;;;;-1.20;69.82;97413.74;432702;1270;108381;-40
2022/01/09 17:21:45;;;;;;;80.20;36.40;;;;;;;-1.25;69.90;97425.77;432534;1269;98182;-43
2022/01/09 17:31:52;;;;;;;69.50;35.40;;;;;;;-1.23;69.86;97433.23;432505;1270;108823;-41
2022/01/09 17:41:57;;;;;;;75.60;35.00;;;;;;;-1.21;69.99;97444.09;432431;1270;98303;-40
2022/01/09 18:02:12;;;;;;;116.90;45.20;;;;;;;-1.39;70.24;97469.58;432470;1270;109884;-41
2022/01/09 18:12:20;;;;;;;115.20;47.00;;;;;;;-1.54;70.46;97469.63;432432;1270;108735;-40
2022/01/09 18:22:25;;;;;;;113.60;49.00;;;;;;;-1.67;70.64;97473.39;432654;1270;97412;-41
2022/01/09 18:32:33;;;;;;;129.40;53.90;;;;;;;-1.71;71.00;97485.41;432529;1270;110817;-42
2022/01/09 18:42:40;;;;;;;85.60;39.10;;;;;;;-1.69;70.88;97502.70;432632;1270;108775;-42
2022/01/09 18:52:47;;;;;;;80.10;36.70;;;;;;;-1.55;71.15;97515.88;432354;1270;97938;-41
2022/01/09 19:02:55;;;;;;;115.40;47.50;;;;;;;-1.36;71.43;97526.45;432599;1270;107806;-42
2022/01/09 19:13:02;;;;;;;107.80;47.30;;;;;;;-1.24;71.70;97529.14;432374;1270;97986;-40
2022/01/09 19:23:09;;;;;;;128.40;54.20;;;;;;;-1.26;71.78;97534.35;432435;1270;97507;-40
2022/01/09 19:33:17;;;;;;;212.00;78.30;;;;;;;-1.33;71.96;97541.29;432455;1270;111149;-40
2022/01/09 19:43:25;;;;;;;162.60;67.60;;;;;;;-1.43;71.98;97547.31;432416;1270;108821;-40
2022/01/09 19:53:33;;;;;;;100.50;49.90;;;;;;;-1.44;72.14;97552.27;432533;1270;97904;-41
2022/01/09 20:03:38;;;;;;;104.70;47.60;;;;;;;-1.38;72.35;97573.28;432498;1270;111233;-40
2022/01/09 20:34:04;;;;;;;151.10;60.40;;;;;;;-1.52;73.01;97599.48;432524;1270;110727;-41
2022/01/09 20:54:18;;;;;;;192.20;75.20;;;;;;;-1.85;73.24;97617.21;432100;1271;108969;-40
2022/01/09 21:04:25;;;;;;;220.40;87.90;;;;;;;-2.06;73.49;97634.57;432568;1270;98015;-40
2022/01/09 21:14:32;;;;;;;169.80;78.20;;;;;;;-2.20;73.44;97645.00;432369;1270;111177;-41
2022/01/09 21:24:40;;;;;;;178.20;77.50;;;;;;;-2.25;73.45;97663.52;432546;1270;108786;-40
2022/01/09 21:34:47;;;;;;;272.60;102.50;;;;;;;-2.27;73.71;97667.55;432173;1269;97911;-41
2022/01/09 21:45:07;;;;;;;290.50;119.20;;;;;;;-2.39;73.93;97670.64;432431;1270;108790;-39
2022/01/09 21:55:12;;;;;;;248.00;95.80;;;;;;;-2.60;73.98;97682.20;432608;1270;108560;-40
2022/01/09 22:05:19;;;;;;;217.40;89.80;;;;;;;-2.76;74.09;97694.73;432467;1270;97897;-40
2022/01/09 22:15:26;;;;;;;197.00;78.10;;;;;;;-2.91;74.34;97698.79;432559;1270;111882;-43
2022/01/09 22:25:34;;;;;;;174.40;74.90;;;;;;;-3.04;74.34;97716.14;432384;1270;109371;-40
2022/01/09 22:35:41;;;;;;;158.30;77.40;;;;;;;-3.10;74.37;97731.85;432389;1270;97798;-40
2022/01/09 22:45:48;;;;;;;145.60;70.30;;;;;;;-3.08;74.49;97747.17;432333;1271;109569;-40
2022/01/09 22:55:55;;;;;;;208.30;81.40;;;;;;;-3.09;74.59;97752.65;432492;1270;97992;-43
2022/01/09 23:06:03;;;;;;;174.80;68.80;;;;;;;-3.07;75.01;97761.05;432304;1271;111124;-40
2022/01/09 23:16:10;;;;;;;217.00;78.90;;;;;;;-3.05;75.20;97773.77;432495;1270;109052;-40
2022/01/09 23:26:18;;;;;;;184.50;73.10;;;;;;;-3.14;75.33;97780.38;432323;1271;109558;-41
2022/01/09 23:36:36;;;;;;;166.70;69.50;;;;;;;-3.16;75.28;97792.11;432381;1271;96676;-40
2022/01/09 23:46:44;;;;;;;142.50;71.00;;;;;;;-3.08;75.35;97795.09;432409;1270;110180;-40
2022/01/09 23:56:51;;;;;;;134.30;64.50;;;;;;;-2.88;75.35;97806.42;432029;1271;108930;-40
